Time;durP1;ratioP1;P1;durP2;ratioP2;P2;SDS_P1;SDS_P2;PMS_P1;PMS_P2;Temp;Humidity;BMP_temperature;BMP_pressure;BME280_temperature;BME280_humidity;BME280_pressure;Samples;Min_cycle;Max_cycle;Signal;HPM_P1;HPM_P2
2021/06/20 00:01:22;;;;;;;5.10;2.92;;;24.80;96.70;;;;;;5043136;28;20131;-73
2021/06/20 00:03:51;;;;;;;3.47;2.55;;;24.80;96.70;;;;;;5025647;28;20071;-73
2021/06/20 00:06:28;;;;;;;3.85;2.55;;;24.80;96.70;;;;;;5041794;28;20044;-73
2021/06/20 00:09:01;;;;;;;4.00;3.30;;;24.70;96.70;;;;;;5023749;28;20045;-73
2021/06/20 00:11:34;;;;;;;3.63;2.97;;;24.70;96.70;;;;;;5043776;28;20086;-73
2021/06/20 00:14:05;;;;;;;3.90;2.60;;;24.70;96.70;;;;;;5043258;28;20599;-73
2021/06/20 00:16:36;;;;;;;5.90;2.80;;;24.60;96.70;;;;;;5041955;28;20064;-73
2021/06/20 00:19:07;;;;;;;3.22;2.55;;;24.50;96.70;;;;;;5055235;28;20083;-73
2021/06/20 00:21:37;;;;;;;3.13;2.83;;;24.40;96.70;;;;;;5042937;28;20517;-73
2021/06/20 00:24:09;;;;;;;3.55;2.72;;;24.30;96.70;;;;;;5047379;28;20094;-73
2021/06/20 00:26:39;;;;;;;5.05;3.03;;;24.40;96.70;;;;;;5039443;28;20510;-73
2021/06/20 00:29:08;;;;;;;2.83;2.60;;;24.30;96.70;;;;;;5040466;28;20068;-73
2021/06/20 00:31:38;;;;;;;3.85;2.80;;;24.20;96.70;;;;;;5032060;28;20171;-73
2021/06/20 00:34:08;;;;;;;3.42;2.40;;;24.20;96.70;;;;;;5035609;28;20036;-73
2021/06/20 00:36:43;;;;;;;4.63;2.58;;;24.10;96.70;;;;;;5036678;28;20435;-73
2021/06/20 00:39:13;;;;;;;3.08;2.67;;;24.10;96.70;;;;;;5054407;28;20043;-74
2021/06/20 00:41:42;;;;;;;3.35;2.58;;;24.00;96.70;;;;;;5043226;28;20064;-73
2021/06/20 00:44:11;;;;;;;3.90;2.60;;;24.10;96.70;;;;;;5036218;28;20577;-73
2021/06/20 00:50:08;;;;;;;5.43;2.20;;;24.10;96.70;;;;;;5041946;28;20053;-74
2021/06/20 00:52:37;;;;;;;4.95;2.75;;;24.10;96.70;;;;;;5036370;28;20043;-73
2021/06/20 00:55:10;;;;;;;3.63;2.35;;;24.00;96.70;;;;;;5038822;28;20454;-73
2021/06/20 00:57:41;;;;;;;3.63;2.53;;;24.00;96.70;;;;;;5039387;28;20127;-73
2021/06/20 01:00:13;;;;;;;3.58;2.65;;;24.00;96.70;;;;;;5042873;28;20458;-73
2021/06/20 01:02:45;;;;;;;3.85;2.60;;;24.00;96.70;;;;;;5040240;28;20049;-73
2021/06/20 01:05:15;;;;;;;4.50;2.38;;;23.90;96.70;;;;;;5039087;28;20409;-73
2021/06/20 01:07:49;;;;;;;2.80;2.50;;;23.90;96.70;;;;;;5040262;28;20280;-73
2021/06/20 01:10:24;;;;;;;3.90;2.67;;;23.80;96.70;;;;;;5039024;28;20041;-73
2021/06/20 01:12:54;;;;;;;5.07;2.60;;;23.80;96.70;;;;;;5039594;28;20411;-73
2021/06/20 01:15:24;;;;;;;5.07;2.75;;;23.80;96.70;;;;;;5036991;28;20114;-73
2021/06/20 01:17:54;;;;;;;3.92;2.50;;;23.90;96.70;;;;;;5040207;28;20587;-73
2021/06/20 01:20:24;;;;;;;4.78;2.38;;;23.90;96.70;;;;;;5041572;28;20216;-73
2021/06/20 01:22:57;;;;;;;4.65;2.42;;;23.80;96.70;;;;;;5041841;28;20571;-73
2021/06/20 01:25:28;;;;;;;3.65;2.53;;;23.90;96.70;;;;;;5036034;28;20037;-73
2021/06/20 01:28:04;;;;;;;4.07;2.45;;;23.80;96.70;;;;;;5038808;28;20175;-73
2021/06/20 01:30:35;;;;;;;4.55;2.63;;;23.80;96.70;;;;;;5039563;28;20048;-73
2021/06/20 01:33:07;;;;;;;3.53;2.58;;;23.80;96.70;;;;;;5041959;28;20051;-72
2021/06/20 01:35:37;;;;;;;4.45;2.75;;;23.80;96.70;;;;;;5039363;28;20072;-73
2021/06/20 01:38:09;;;;;;;5.78;2.83;;;23.80;96.70;;;;;;5038706;28;20451;-73
2021/06/20 01:40:39;;;;;;;5.50;2.85;;;23.70;96.70;;;;;;5038441;28;20037;-73
2021/06/20 01:43:10;;;;;;;6.57;2.70;;;23.70;96.70;;;;;;5038751;28;20542;-73
2021/06/20 01:45:41;;;;;;;5.60;2.40;;;23.60;96.70;;;;;;5037767;28;20124;-73
2021/06/20 01:48:12;;;;;;;3.85;2.55;;;23.70;96.70;;;;;;5041012;28;20072;-73
2021/06/20 01:50:41;;;;;;;4.57;2.50;;;23.70;96.70;;;;;;5039268;28;20171;-73
2021/06/20 01:53:15;;;;;;;3.40;2.97;;;23.80;96.70;;;;;;5041391;28;20864;-73
2021/06/20 01:55:47;;;;;;;4.70;2.45;;;23.80;96.70;;;;;;5041654;28;20044;-73
2021/06/20 01:58:18;;;;;;;4.25;2.53;;;23.70;96.70;;;;;;5024777;28;20219;-73
2021/06/20 02:00:50;;;;;;;4.60;2.58;;;23.60;96.70;;;;;;5040043;28;20648;-73
2021/06/20 02:03:25;;;;;;;2.67;2.20;;;23.60;96.70;;;;;;5038410;28;20037;-73
2021/06/20 02:05:58;;;;;;;4.40;2.45;;;23.60;96.70;;;;;;5040637;28;20060;-73
2021/06/20 02:08:28;;;;;;;2.83;2.20;;;23.50;96.70;;;;;;5038970;28;20037;-73
2021/06/20 02:11:05;;;;;;;3.70;2.40;;;23.50;96.70;;;;;;5040932;28;20059;-73
2021/06/20 02:13:47;;;;;;;4.93;2.70;;;23.60;96.70;;;;;;5038027;28;20417;-73
2021/06/20 02:16:29;;;;;;;4.18;2.92;;;23.60;96.70;;;;;;5038674;28;20511;-73
2021/06/20 02:18:58;;;;;;;3.22;2.75;;;23.40;96.70;;;;;;5044547;28;20540;-73
2021/06/20 02:21:29;;;;;;;5.85;2.80;;;23.30;96.70;;;;;;5046489;28;20118;-73
2021/06/20 02:24:01;;;;;;;3.30;2.42;;;23.40;96.70;;;;;;5043713;28;20600;-73
2021/06/20 02:26:30;;;;;;;3.00;2.42;;;23.40;96.70;;;;;;5042380;28;20392;-73
2021/06/20 02:29:00;;;;;;;4.32;2.90;;;23.30;96.70;;;;;;5042993;28;20041;-73
2021/06/20 02:31:30;;;;;;;6.00;3.22;;;23.20;96.70;;;;;;5045715;28;20558;-73
2021/06/20 02:33:59;;;;;;;5.53;2.70;;;23.20;96.70;;;;;;5041392;28;20466;-73
2021/06/20 02:36:30;;;;;;;5.32;2.90;;;23.10;96.70;;;;;;5042545;28;20504;-73
2021/06/20 02:39:02;;;;;;;4.15;3.22;;;23.10;96.70;;;;;;5040256;28;20098;-73
2021/06/20 02:41:31;;;;;;;4.13;3.50;;;23.00;96.70;;;;;;5044525;28;20041;-73
2021/06/20 02:44:01;;;;;;;3.88;3.15;;;23.00;96.70;;;;;;5040087;28;20041;-73
2021/06/20 02:46:29;;;;;;;5.40;3.35;;;23.00;96.70;;;;;;5018496;28;20051;-73
2021/06/20 02:48:58;;;;;;;4.72;3.17;;;23.00;96.70;;;;;;5038947;28;20037;-73
2021/06/20 02:51:29;;;;;;;5.50;3.50;;;23.00;96.70;;;;;;5042667;28;20057;-73
2021/06/20 02:54:00;;;;;;;4.28;3.05;;;23.00;96.70;;;;;;5044437;28;20037;-73
2021/06/20 02:56:30;;;;;;;3.85;3.13;;;23.00;96.70;;;;;;5043239;28;20049;-73
2021/06/20 02:59:00;;;;;;;4.72;3.20;;;23.00;96.70;;;;;;5042713;28;20453;-73
2021/06/20 03:01:29;;;;;;;5.72;3.33;;;23.10;96.70;;;;;;5039640;28;20053;-73
2021/06/20 03:03:59;;;;;;;4.80;3.10;;;23.00;96.70;;;;;;5038760;28;20119;-73
2021/06/20 03:06:29;;;;;;;4.03;3.03;;;23.00;96.70;;;;;;5042250;28;20040;-73
2021/06/20 03:09:00;;;;;;;4.55;2.83;;;23.00;96.70;;;;;;5043540;28;20040;-73
2021/06/20 03:11:30;;;;;;;4.53;3.05;;;23.00;96.70;;;;;;5038272;28;20045;-73
2021/06/20 03:14:00;;;;;;;6.05;3.40;;;23.00;96.70;;;;;;5040714;28;20045;-73
2021/06/20 03:16:30;;;;;;;4.65;3.20;;;23.00;96.70;;;;;;5041583;28;20537;-73
2021/06/20 03:19:00;;;;;;;3.35;3.05;;;23.10;96.70;;;;;;5044211;28;20048;-73
2021/06/20 03:21:30;;;;;;;3.83;3.50;;;23.10;96.70;;;;;;5043147;28;20411;-73
2021/06/20 03:24:02;;;;;;;5.20;2.88;;;23.00;96.70;;;;;;5042683;28;20130;-72
2021/06/20 03:26:32;;;;;;;4.45;3.20;;;23.10;96.70;;;;;;5038993;28;20391;-73
2021/06/20 03:29:03;;;;;;;6.40;3.33;;;23.20;96.70;;;;;;5044049;28;20045;-73
2021/06/20 03:31:33;;;;;;;3.33;2.95;;;23.10;96.70;;;;;;5025568;28;20052;-73
2021/06/20 03:34:03;;;;;;;3.88;3.33;;;23.00;96.70;;;;;;5024924;28;20060;-73
2021/06/20 03:36:32;;;;;;;3.53;3.10;;;22.90;96.70;;;;;;5039531;28;20136;-73
2021/06/20 03:39:05;;;;;;;4.00;3.42;;;23.00;96.70;;;;;;5042507;28;20712;-73
2021/06/20 03:41:35;;;;;;;3.65;3.22;;;22.90;96.70;;;;;;5039817;28;20055;-73
2021/06/20 03:44:09;;;;;;;5.30;3.47;;;23.00;96.70;;;;;;5044102;28;20098;-73
2021/06/20 03:46:38;;;;;;;4.85;2.97;;;23.00;96.70;;;;;;5056281;28;20056;-73
2021/06/20 03:49:09;;;;;;;3.78;3.15;;;23.10;96.70;;;;;;5040998;28;20169;-73
2021/06/20 03:51:38;;;;;;;3.97;3.53;;;23.10;96.70;;;;;;5026359;28;20041;-73
2021/06/20 03:54:15;;;;;;;5.03;3.90;;;23.10;96.70;;;;;;5036444;28;20041;-73
2021/06/20 03:56:45;;;;;;;3.95;3.47;;;23.20;96.70;;;;;;5041945;28;20667;-73
2021/06/20 03:59:16;;;;;;;8.10;3.85;;;23.10;96.70;;;;;;5042920;28;20041;-73
2021/06/20 04:01:46;;;;;;;5.07;3.65;;;23.10;96.70;;;;;;5042771;28;20045;-73
2021/06/20 04:04:16;;;;;;;6.03;3.63;;;23.10;96.70;;;;;;5041015;28;20037;-73
2021/06/20 04:06:46;;;;;;;3.78;3.38;;;23.10;96.70;;;;;;5042003;28;20088;-73
2021/06/20 04:09:18;;;;;;;42.03;26.95;;;23.10;96.70;;;;;;5038650;28;20425;-73
2021/06/20 04:11:47;;;;;;;60.70;35.72;;;23.00;96.70;;;;;;5044038;28;20473;-73
2021/06/20 04:14:16;;;;;;;60.38;38.83;;;22.90;96.70;;;;;;5041666;28;20122;-73
2021/06/20 04:16:45;;;;;;;36.67;22.98;;;23.00;96.70;;;;;;5040855;28;20057;-73
2021/06/20 04:19:14;;;;;;;31.48;18.02;;;22.90;96.70;;;;;;5039898;28;20037;-72
2021/06/20 04:21:44;;;;;;;20.00;12.60;;;22.90;96.70;;;;;;5038501;28;20403;-73
2021/06/20 04:24:12;;;;;;;12.43;8.63;;;22.90;96.70;;;;;;5039010;28;20044;-73
2021/06/20 04:26:42;;;;;;;8.52;5.60;;;22.90;96.70;;;;;;5044037;28;20410;-73
2021/06/20 04:29:11;;;;;;;6.28;4.50;;;22.90;96.70;;;;;;5041418;28;20280;-73
2021/06/20 04:31:40;;;;;;;4.40;3.78;;;22.90;96.70;;;;;;5040876;28;20438;-73
2021/06/20 04:34:10;;;;;;;3.53;3.13;;;22.90;96.70;;;;;;5022558;28;20175;-73
2021/06/20 04:36:40;;;;;;;4.43;2.92;;;22.90;96.70;;;;;;5040780;28;20044;-73
2021/06/20 04:39:10;;;;;;;4.78;3.42;;;22.90;96.70;;;;;;5040248;28;20041;-73
2021/06/20 04:41:41;;;;;;;3.58;3.28;;;23.00;96.70;;;;;;5040590;28;20063;-73
2021/06/20 04:44:42;;;;;;;7.00;3.22;;;23.00;96.70;;;;;;5036278;28;20517;-73
2021/06/20 04:47:07;;;;;;;5.18;3.08;;;23.10;96.70;;;;;;5041973;28;20043;-73
2021/06/20 04:49:35;;;;;;;5.25;3.22;;;22.90;96.70;;;;;;5040629;28;20144;-73
2021/06/20 04:52:05;;;;;;;4.50;3.25;;;22.80;96.70;;;;;;5039435;28;20596;-73
2021/06/20 04:54:35;;;;;;;4.15;3.28;;;22.90;96.70;;;;;;5052840;28;20052;-73
2021/06/20 04:57:08;;;;;;;3.38;3.05;;;23.00;96.70;;;;;;5042925;28;20038;-73
2021/06/20 04:59:36;;;;;;;4.95;3.45;;;23.00;96.70;;;;;;5043363;22;20079;-74
2021/06/20 05:02:04;;;;;;;4.35;3.25;;;23.10;96.70;;;;;;5045997;28;20060;-74
2021/06/20 05:04:34;;;;;;;4.30;2.90;;;23.10;96.70;;;;;;5036942;28;20040;-74
2021/06/20 05:07:03;;;;;;;6.40;2.97;;;23.00;96.70;;;;;;5039691;28;20048;-74
2021/06/20 05:09:30;;;;;;;6.00;3.38;;;22.90;96.70;;;;;;5042433;28;20037;-74
2021/06/20 05:11:59;;;;;;;4.82;2.95;;;22.90;96.70;;;;;;5040090;28;20647;-74
2021/06/20 05:14:28;;;;;;;3.78;3.13;;;22.90;96.70;;;;;;5030791;28;20037;-74
2021/06/20 05:16:57;;;;;;;5.57;4.10;;;22.80;96.70;;;;;;5043007;28;20522;-77
2021/06/20 05:19:26;;;;;;;4.25;3.08;;;22.90;96.70;;;;;;5037897;28;20499;-75
2021/06/20 05:21:54;;;;;;;6.00;3.28;;;22.80;96.70;;;;;;5042655;28;20506;-75
2021/06/20 05:24:23;;;;;;;4.53;3.15;;;22.90;96.70;;;;;;5037712;28;20441;-76
2021/06/20 05:26:51;;;;;;;5.90;3.13;;;22.90;96.70;;;;;;5033346;28;20136;-76
2021/06/20 05:29:19;;;;;;;5.20;4.35;;;22.80;96.70;;;;;;5060181;28;20167;-73
2021/06/20 05:31:49;;;;;;;6.20;4.20;;;22.90;96.70;;;;;;5041157;28;20045;-75
2021/06/20 05:34:16;;;;;;;6.15;4.90;;;22.80;96.70;;;;;;5040388;28;20075;-74
2021/06/20 05:36:45;;;;;;;5.03;4.55;;;22.90;96.70;;;;;;5039028;28;20104;-74
2021/06/20 05:39:13;;;;;;;6.13;5.25;;;22.90;96.70;;;;;;5038388;28;20510;-74
2021/06/20 05:41:41;;;;;;;8.52;4.88;;;22.90;96.70;;;;;;5036174;28;20041;-74
2021/06/20 05:44:09;;;;;;;9.27;5.38;;;22.90;96.70;;;;;;5039830;28;20064;-74
2021/06/20 05:46:37;;;;;;;6.88;4.35;;;23.00;96.70;;;;;;5039010;28;20514;-74
2021/06/20 05:49:06;;;;;;;10.65;4.38;;;23.10;96.70;;;;;;5035542;28;20136;-74
2021/06/20 05:51:34;;;;;;;5.60;3.95;;;23.20;96.70;;;;;;5043270;28;20060;-74
2021/06/20 05:54:02;;;;;;;5.20;4.03;;;23.20;96.70;;;;;;5042229;28;20045;-74
2021/06/20 05:56:31;;;;;;;5.28;3.95;;;23.30;96.70;;;;;;5043769;28;20402;-74
2021/06/20 05:58:59;;;;;;;6.57;4.07;;;23.20;96.70;;;;;;5061810;28;20053;-74
2021/06/20 06:01:27;;;;;;;6.68;4.10;;;23.20;96.70;;;;;;5042871;28;20049;-74
2021/06/20 06:03:55;;;;;;;5.97;4.15;;;23.10;96.70;;;;;;5037474;28;20056;-74
2021/06/20 06:06:24;;;;;;;5.55;3.90;;;22.90;96.70;;;;;;5043869;28;20435;-74
2021/06/20 06:08:52;;;;;;;5.78;4.10;;;23.00;96.70;;;;;;5045583;28;20051;-74
2021/06/20 06:11:20;;;;;;;6.28;4.00;;;23.10;96.70;;;;;;5043219;28;20049;-73
2021/06/20 06:13:52;;;;;;;4.88;3.95;;;23.20;96.70;;;;;;5042014;28;20560;-74
2021/06/20 06:16:19;;;;;;;6.05;3.92;;;23.40;96.70;;;;;;5038931;28;20907;-74
2021/06/20 06:18:47;;;;;;;5.15;3.67;;;23.50;96.70;;;;;;5044548;28;20056;-74
2021/06/20 06:21:16;;;;;;;6.15;4.32;;;23.60;96.70;;;;;;5043718;28;20128;-74
2021/06/20 06:23:45;;;;;;;7.10;3.80;;;23.70;96.70;;;;;;5047393;28;20052;-74
2021/06/20 06:26:16;;;;;;;5.47;4.28;;;23.80;96.70;;;;;;5042621;28;20041;-74
2021/06/20 06:28:44;;;;;;;5.22;3.75;;;23.90;96.70;;;;;;5044489;28;20055;-74
2021/06/20 06:31:12;;;;;;;6.50;4.10;;;23.70;96.70;;;;;;5039646;28;20044;-74
2021/06/20 06:33:41;;;;;;;9.10;4.22;;;23.80;96.70;;;;;;5041424;28;20105;-74
2021/06/20 06:36:09;;;;;;;8.30;4.10;;;23.70;96.70;;;;;;5038950;28;20036;-76
2021/06/20 06:38:37;;;;;;;4.65;3.92;;;23.70;96.70;;;;;;5040372;28;20040;-75
2021/06/20 06:41:06;;;;;;;5.85;4.20;;;23.70;96.70;;;;;;5043946;28;20033;-76
2021/06/20 06:43:35;;;;;;;5.82;4.07;;;23.70;96.70;;;;;;5037610;28;20393;-75
2021/06/20 06:46:03;;;;;;;4.28;3.97;;;23.80;96.70;;;;;;5044464;28;20047;-75
2021/06/20 06:48:31;;;;;;;6.63;3.92;;;24.00;96.70;;;;;;5039212;28;20095;-75
2021/06/20 06:50:59;;;;;;;10.50;4.78;;;24.10;96.70;;;;;;5036117;28;20368;-75
2021/06/20 06:53:28;;;;;;;10.35;4.07;;;24.20;96.70;;;;;;5042792;28;20083;-75
2021/06/20 06:55:57;;;;;;;11.73;4.65;;;24.30;96.70;;;;;;5039301;28;20136;-75
2021/06/20 06:58:26;;;;;;;9.95;4.43;;;24.50;96.70;;;;;;5035441;28;20365;-74
2021/06/20 07:00:54;;;;;;;5.63;4.25;;;24.50;96.70;;;;;;5036217;28;20413;-75
2021/06/20 07:03:23;;;;;;;5.95;4.20;;;24.60;96.70;;;;;;5038234;28;20430;-76
2021/06/20 07:05:53;;;;;;;5.50;4.00;;;24.70;96.70;;;;;;5041242;28;20400;-75
2021/06/20 07:08:21;;;;;;;6.30;4.32;;;24.70;96.70;;;;;;5037842;28;20368;-75
2021/06/20 07:10:49;;;;;;;5.35;4.38;;;24.80;96.70;;;;;;5038450;28;20513;-74
2021/06/20 07:13:17;;;;;;;5.95;4.30;;;24.90;96.70;;;;;;5041882;28;20041;-74
2021/06/20 07:15:47;;;;;;;9.02;4.40;;;25.00;96.70;;;;;;5043999;28;20041;-75
2021/06/20 07:18:15;;;;;;;7.10;4.65;;;25.20;96.70;;;;;;5039522;28;20037;-77
2021/06/20 07:20:43;;;;;;;6.70;4.65;;;25.30;96.70;;;;;;5037410;28;20148;-76
2021/06/20 07:23:11;;;;;;;11.55;7.40;;;25.40;96.70;;;;;;5038379;28;20136;-76
2021/06/20 07:25:39;;;;;;;6.50;5.75;;;25.40;96.70;;;;;;5045454;28;20037;-77
2021/06/20 07:28:08;;;;;;;5.47;4.32;;;25.60;96.70;;;;;;5037999;28;20049;-76
2021/06/20 07:30:36;;;;;;;7.85;4.22;;;25.80;96.70;;;;;;5042270;28;20055;-76
2021/06/20 07:33:06;;;;;;;5.45;3.78;;;25.90;96.70;;;;;;5039691;28;20048;-76
2021/06/20 07:35:34;;;;;;;4.88;4.38;;;25.90;96.70;;;;;;5036616;28;20138;-76
2021/06/20 07:38:02;;;;;;;5.35;3.75;;;25.90;96.70;;;;;;5043069;28;20049;-77
2021/06/20 07:40:30;;;;;;;8.93;3.97;;;25.90;96.70;;;;;;5035499;28;20041;-77
2021/06/20 07:42:58;;;;;;;7.63;3.53;;;26.00;96.70;;;;;;5040813;28;20558;-77
2021/06/20 07:45:27;;;;;;;6.95;4.00;;;26.10;96.70;;;;;;5042066;28;20072;-77
2021/06/20 07:47:55;;;;;;;5.30;3.95;;;26.20;96.70;;;;;;5035204;28;20048;-77
2021/06/20 07:50:25;;;;;;;4.57;3.40;;;26.20;96.70;;;;;;5039778;28;20041;-77
2021/06/20 07:52:53;;;;;;;5.40;3.95;;;26.20;96.70;;;;;;5038139;28;20044;-75
2021/06/20 07:55:21;;;;;;;6.03;3.58;;;26.20;96.70;;;;;;5020449;28;20139;-76
2021/06/20 07:57:50;;;;;;;5.85;3.72;;;26.20;96.70;;;;;;5041483;28;20045;-76
2021/06/20 08:00:19;;;;;;;4.03;3.33;;;26.20;96.70;;;;;;5037145;28;20053;-76
2021/06/20 08:02:47;;;;;;;6.28;3.65;;;26.30;96.70;;;;;;5038094;28;20033;-77
2021/06/20 08:05:16;;;;;;;9.48;3.63;;;26.20;96.70;;;;;;5036737;28;20041;-77
2021/06/20 08:07:47;;;;;;;10.52;4.07;;;26.20;96.70;;;;;;5040619;28;20060;-76
2021/06/20 08:10:16;;;;;;;4.57;3.90;;;26.30;96.70;;;;;;5037600;28;20048;-76
2021/06/20 08:12:44;;;;;;;4.93;3.40;;;26.30;96.70;;;;;;5037193;28;20042;-76
2021/06/20 08:15:13;;;;;;;6.10;3.80;;;26.40;96.70;;;;;;5041797;28;20979;-76
2021/06/20 08:17:42;;;;;;;5.10;3.70;;;26.40;96.70;;;;;;5044688;28;20037;-75
2021/06/20 08:20:12;;;;;;;5.85;3.50;;;26.50;96.70;;;;;;5039580;28;20872;-76
2021/06/20 08:22:41;;;;;;;5.80;3.63;;;26.60;96.70;;;;;;5038210;28;20036;-76
2021/06/20 08:25:13;;;;;;;6.15;3.90;;;26.60;96.70;;;;;;5040194;28;20825;-76
2021/06/20 08:27:42;;;;;;;6.57;3.65;;;26.60;96.70;;;;;;5041381;28;20056;-76
2021/06/20 08:30:12;;;;;;;16.55;4.38;;;26.70;96.70;;;;;;5043981;28;20051;-76
2021/06/20 08:32:40;;;;;;;5.75;3.45;;;26.70;96.70;;;;;;5042617;28;20541;-76
2021/06/20 08:35:10;;;;;;;5.72;3.65;;;26.70;96.70;;;;;;5039068;28;20043;-76
2021/06/20 08:37:38;;;;;;;3.95;3.35;;;26.80;96.70;;;;;;5038666;28;20119;-76
2021/06/20 08:40:07;;;;;;;7.30;3.85;;;26.80;96.70;;;;;;5039663;28;20033;-76
2021/06/20 08:42:36;;;;;;;5.95;3.90;;;26.90;96.70;;;;;;5034197;28;20568;-76
2021/06/20 08:45:12;;;;;;;6.88;3.50;;;26.90;96.70;;;;;;5035833;28;20159;-77
2021/06/20 08:47:42;;;;;;;4.70;3.25;;;27.00;96.70;;;;;;5034597;28;20068;-76
2021/06/20 08:50:11;;;;;;;12.18;10.75;;;27.00;96.70;;;;;;5036497;28;20047;-75
2021/06/20 08:52:40;;;;;;;7.60;5.13;;;27.00;96.70;;;;;;5041826;28;20052;-75
2021/06/20 08:55:11;;;;;;;4.55;3.83;;;27.00;96.70;;;;;;5037594;28;20071;-76
2021/06/20 08:57:43;;;;;;;6.22;3.90;;;27.10;96.70;;;;;;5040197;28;20049;-76
2021/06/20 09:00:14;;;;;;;8.85;4.43;;;27.30;96.70;;;;;;5040599;28;20107;-77
2021/06/20 09:02:43;;;;;;;5.20;4.03;;;27.50;96.70;;;;;;5050995;28;20131;-76
2021/06/20 09:05:15;;;;;;;7.32;3.75;;;27.60;96.70;;;;;;5039304;28;20513;-75
2021/06/20 09:07:46;;;;;;;7.65;4.00;;;27.70;96.70;;;;;;5039416;28;20065;-76
2021/06/20 09:10:16;;;;;;;6.20;3.72;;;27.90;96.70;;;;;;5040232;28;20052;-76
2021/06/20 09:12:49;;;;;;;9.07;4.20;;;27.90;96.70;;;;;;5037799;28;20231;-77
2021/06/20 09:15:20;;;;;;;17.73;4.95;;;27.90;96.70;;;;;;5038216;28;20250;-76
2021/06/20 09:17:52;;;;;;;7.13;4.47;;;28.00;96.70;;;;;;5039644;28;20609;-76
2021/06/20 09:20:31;;;;;;;7.30;3.95;;;28.00;96.70;;;;;;5039856;28;20100;-77
2021/06/20 09:23:00;;;;;;;17.48;15.55;;;28.30;96.40;;;;;;5044160;28;20123;-76
2021/06/20 09:25:29;;;;;;;8.73;4.55;;;28.40;96.70;;;;;;5037233;28;20049;-76
2021/06/20 09:28:01;;;;;;;4.80;3.75;;;28.40;96.60;;;;;;5039596;28;20041;-75
2021/06/20 09:30:34;;;;;;;4.35;3.95;;;28.40;95.00;;;;;;5036884;28;20443;-76
2021/06/20 09:33:04;;;;;;;5.05;4.43;;;28.20;95.70;;;;;;5036742;28;20588;-76
2021/06/20 09:35:43;;;;;;;7.68;4.43;;;28.40;96.50;;;;;;5036303;28;20033;-76
2021/06/20 09:38:18;;;;;;;7.85;4.85;;;28.40;95.80;;;;;;5041934;28;20427;-76
2021/06/20 09:40:48;;;;;;;6.93;4.05;;;28.50;95.60;;;;;;5045612;28;20045;-76
2021/06/20 09:43:19;;;;;;;7.35;4.38;;;28.50;95.50;;;;;;5036843;28;20073;-76
2021/06/20 09:45:48;;;;;;;5.78;4.20;;;28.40;95.10;;;;;;5039083;28;20048;-76
2021/06/20 09:48:24;;;;;;;4.32;3.47;;;28.50;94.70;;;;;;5039969;28;20053;-76
2021/06/20 09:50:54;;;;;;;6.53;2.95;;;28.60;92.70;;;;;;5039976;28;20052;-76
2021/06/20 09:53:32;;;;;;;4.00;2.63;;;28.70;91.80;;;;;;5037858;28;20041;-76
2021/06/20 09:56:15;;;;;;;3.50;2.38;;;28.80;90.70;;;;;;5038581;28;20042;-76
2021/06/20 09:58:54;;;;;;;13.00;3.20;;;28.90;89.50;;;;;;5039086;28;20053;-76
2021/06/20 10:01:24;;;;;;;7.45;2.70;;;29.00;89.90;;;;;;5032026;28;20045;-76
2021/06/20 10:03:52;;;;;;;5.88;1.95;;;29.00;87.70;;;;;;5041565;28;20398;-75
2021/06/20 10:06:21;;;;;;;5.68;2.33;;;29.00;87.70;;;;;;5039629;28;20060;-75
2021/06/20 10:08:50;;;;;;;3.50;2.60;;;29.10;87.20;;;;;;5039471;28;20037;-76
2021/06/20 10:11:18;;;;;;;4.78;2.17;;;29.00;87.10;;;;;;5040413;28;20041;-76
2021/06/20 10:13:49;;;;;;;8.80;2.85;;;29.10;87.60;;;;;;5036446;28;20041;-75
2021/06/20 10:16:22;;;;;;;6.68;2.63;;;29.20;88.40;;;;;;5044076;28;20052;-76
2021/06/20 10:18:54;;;;;;;4.60;2.38;;;29.30;88.00;;;;;;5041932;28;20041;-76
2021/06/20 10:21:29;;;;;;;4.72;2.70;;;29.40;87.50;;;;;;5032936;28;20137;-76
2021/06/20 10:24:13;;;;;;;6.57;2.33;;;29.50;87.40;;;;;;5040014;28;20082;-75
2021/06/20 10:26:55;;;;;;;5.68;2.92;;;29.50;87.40;;;;;;5026971;28;20045;-77
2021/06/20 10:29:27;;;;;;;11.48;2.55;;;29.60;87.40;;;;;;5043151;28;20041;-76
2021/06/20 10:31:57;;;;;;;7.32;2.50;;;29.70;87.60;;;;;;5035730;28;20042;-77
2021/06/20 10:34:27;;;;;;;8.43;2.55;;;29.80;86.50;;;;;;5041338;28;20048;-77
2021/06/20 10:36:57;;;;;;;7.57;2.33;;;29.90;86.50;;;;;;5040140;28;20128;-77
2021/06/20 10:39:26;;;;;;;8.27;3.60;;;30.10;86.40;;;;;;5045876;28;20041;-77
2021/06/20 10:42:09;;;;;;;7.68;2.85;;;30.30;85.80;;;;;;5044365;28;20037;-77
2021/06/20 10:44:44;;;;;;;8.60;2.85;;;30.40;85.90;;;;;;5058804;28;20047;-77
2021/06/20 10:47:25;;;;;;;7.30;3.03;;;30.40;85.60;;;;;;5044589;28;20498;-77
2021/06/20 10:49:55;;;;;;;5.45;2.70;;;30.50;85.80;;;;;;5037649;28;20047;-77
2021/06/20 10:52:24;;;;;;;6.95;2.60;;;30.40;85.60;;;;;;5034094;28;20032;-77
2021/06/20 10:55:08;;;;;;;38.13;4.78;;;30.30;85.30;;;;;;5022397;28;20396;-77
2021/06/20 10:57:48;;;;;;;24.88;3.30;;;30.20;85.80;;;;;;5038886;28;20076;-77
2021/06/20 11:00:28;;;;;;;20.65;3.85;;;30.30;85.50;;;;;;5042153;28;20045;-78
2021/06/20 11:03:08;;;;;;;16.42;3.78;;;30.30;85.60;;;;;;5039964;28;20049;-77
2021/06/20 11:05:48;;;;;;;11.40;3.60;;;30.50;85.60;;;;;;5038402;28;20049;-78
2021/06/20 11:08:30;;;;;;;6.65;3.00;;;30.40;85.30;;;;;;5039552;28;20063;-78
2021/06/20 11:11:21;;;;;;;11.60;3.13;;;30.60;85.70;;;;;;5022208;28;20053;-77
2021/06/20 11:14:03;;;;;;;9.40;3.28;;;30.80;86.60;;;;;;5037053;28;20048;-75
2021/06/20 11:16:35;;;;;;;8.85;3.08;;;31.00;86.20;;;;;;5044874;28;20043;-75
2021/06/20 11:19:08;;;;;;;9.10;4.18;;;31.10;86.10;;;;;;5046786;28;20040;-76
2021/06/20 11:21:39;;;;;;;4.88;2.90;;;31.20;85.20;;;;;;5044165;28;20098;-75
2021/06/20 11:24:09;;;;;;;6.35;3.22;;;31.20;84.30;;;;;;5042066;28;20441;-75
2021/06/20 11:26:38;;;;;;;6.97;3.10;;;31.30;84.60;;;;;;5045809;28;20048;-75
2021/06/20 11:29:08;;;;;;;10.88;2.63;;;31.30;83.90;;;;;;5042278;28;20041;-76
2021/06/20 11:31:48;;;;;;;6.75;2.92;;;31.20;83.10;;;;;;5043621;28;20037;-75
2021/06/20 11:34:17;;;;;;;5.47;2.90;;;31.20;83.60;;;;;;5038431;28;20047;-77
2021/06/20 11:36:46;;;;;;;5.63;2.80;;;31.30;84.60;;;;;;5041696;28;20052;-77
2021/06/20 11:39:15;;;;;;;7.13;3.03;;;31.40;83.10;;;;;;5041840;28;20047;-75
2021/06/20 11:41:45;;;;;;;6.85;2.80;;;31.40;82.90;;;;;;5040750;28;20043;-75
2021/06/20 11:44:14;;;;;;;7.60;3.25;;;31.40;82.70;;;;;;5038538;28;20560;-75
2021/06/20 11:46:45;;;;;;;6.35;2.72;;;31.30;82.90;;;;;;5042959;28;20372;-75
2021/06/20 11:49:17;;;;;;;9.35;2.95;;;31.30;82.30;;;;;;5039546;28;20033;-75
2021/06/20 11:51:46;;;;;;;8.30;3.05;;;31.20;83.00;;;;;;5040002;28;20044;-75
2021/06/20 11:54:18;;;;;;;9.32;3.20;;;31.30;83.30;;;;;;5041969;28;20048;-75
2021/06/20 11:56:53;;;;;;;10.07;3.47;;;31.30;82.70;;;;;;5043718;28;20060;-75
2021/06/20 11:59:33;;;;;;;7.35;3.33;;;31.30;82.50;;;;;;5041351;28;20045;-75
2021/06/20 12:02:03;;;;;;;9.43;3.03;;;31.20;83.20;;;;;;5039204;28;20045;-75
2021/06/20 12:04:48;;;;;;;10.50;3.35;;;31.20;83.00;;;;;;5034532;28;20136;-75
2021/06/20 12:07:17;;;;;;;10.48;3.67;;;31.30;82.60;;;;;;5033477;28;20055;-75
2021/06/20 12:09:48;;;;;;;10.23;3.42;;;31.30;82.60;;;;;;5041327;28;20094;-75
2021/06/20 12:12:18;;;;;;;9.95;3.03;;;31.30;82.60;;;;;;5038738;28;20037;-75
2021/06/20 12:14:57;;;;;;;13.48;3.58;;;31.20;82.80;;;;;;5036783;28;20041;-76
2021/06/20 12:17:26;;;;;;;6.53;3.20;;;31.20;83.10;;;;;;5038253;28;20045;-75
2021/06/20 12:19:57;;;;;;;9.07;3.22;;;31.10;83.80;;;;;;5019785;28;20561;-75
2021/06/20 12:22:25;;;;;;;9.80;3.40;;;30.90;84.30;;;;;;5040500;28;20131;-76
2021/06/20 12:24:59;;;;;;;7.70;3.28;;;30.80;84.70;;;;;;5038184;28;20053;-75
2021/06/20 12:27:32;;;;;;;10.00;4.00;;;30.80;84.90;;;;;;5035829;28;20072;-75
2021/06/20 12:30:12;;;;;;;13.27;3.65;;;30.90;85.70;;;;;;5037577;28;20888;-75
2021/06/20 12:32:41;;;;;;;8.57;3.20;;;30.90;85.50;;;;;;5038431;28;20509;-75
2021/06/20 12:35:24;;;;;;;6.07;3.40;;;31.00;85.60;;;;;;5041211;28;20055;-75
2021/06/20 12:37:54;;;;;;;10.93;3.25;;;31.20;85.70;;;;;;5041328;28;20033;-75
2021/06/20 12:40:26;;;;;;;8.00;3.22;;;31.20;85.20;;;;;;5022744;28;20051;-75
2021/06/20 12:42:56;;;;;;;11.38;3.33;;;31.20;85.50;;;;;;5042026;28;20040;-76
2021/06/20 12:45:31;;;;;;;13.25;3.03;;;31.20;85.10;;;;;;5036995;28;20061;-75
2021/06/20 12:48:10;;;;;;;6.90;3.28;;;31.40;84.60;;;;;;5038175;28;20418;-75
2021/06/20 12:50:46;;;;;;;8.70;3.40;;;31.50;85.10;;;;;;5038594;28;20056;-77
2021/06/20 12:53:27;;;;;;;12.30;4.18;;;31.70;85.70;;;;;;5039401;28;20044;-77
2021/06/20 12:55:56;;;;;;;7.95;4.10;;;31.80;85.70;;;;;;5038275;28;20048;-77
2021/06/20 12:58:24;;;;;;;7.93;3.20;;;31.80;87.00;;;;;;5041693;28;20053;-76
2021/06/20 13:00:57;;;;;;;6.10;3.20;;;31.90;86.60;;;;;;5040370;28;20029;-76
2021/06/20 13:03:28;;;;;;;6.18;3.70;;;32.10;85.80;;;;;;5040834;28;20052;-76
2021/06/20 13:06:00;;;;;;;8.50;4.15;;;32.40;85.60;;;;;;5039673;28;20041;-77
2021/06/20 13:08:30;;;;;;;8.43;3.75;;;32.40;84.60;;;;;;5022108;28;21298;-76